sensor_id;sensor_type;location;lat;lon;timestamp;pressure;altitude;pressure_sealevel;temperature;humidity
56719;BME280;42597;40.636;0.278;2022-10-17T00:01:13;97771.91;;;20.65;91.53
56719;BME280;42597;40.636;0.278;2022-10-17T00:03:39;97771.94;;;20.47;89.90
56719;BME280;42597;40.636;0.278;2022-10-17T00:06:10;97772.97;;;21.03;89.21
56719;BME280;42597;40.636;0.278;2022-10-17T00:08:38;97763.75;;;21.38;87.48
56719;BME280;42597;40.636;0.278;2022-10-17T00:11:17;97766.03;;;21.51;85.81
56719;BME280;42597;40.636;0.278;2022-10-17T00:13:44;97764.47;;;21.53;85.23
56719;BME280;42597;40.636;0.278;2022-10-17T00:16:10;97777.44;;;21.49;85.24
56719;BME280;42597;40.636;0.278;2022-10-17T00:18:36;97777.88;;;21.44;85.17
56719;BME280;42597;40.636;0.278;2022-10-17T00:21:02;97761.38;;;21.44;84.33
56719;BME280;42597;40.636;0.278;2022-10-17T00:23:28;97765.28;;;19.48;94.11
56719;BME280;42597;40.636;0.278;2022-10-17T00:26:01;97766.38;;;19.15;98.02
56719;BME280;42597;40.636;0.278;2022-10-17T00:28:29;97758.59;;;19.31;98.28
56719;BME280;42597;40.636;0.278;2022-10-17T00:30:59;97753.97;;;20.00;96.09
56719;BME280;42597;40.636;0.278;2022-10-17T00:33:27;97761.00;;;19.54;94.25
56719;BME280;42597;40.636;0.278;2022-10-17T00:36:03;97764.53;;;19.69;93.73
56719;BME280;42597;40.636;0.278;2022-10-17T00:38:29;97764.06;;;19.31;96.08
56719;BME280;42597;40.636;0.278;2022-10-17T00:40:55;97750.44;;;19.63;94.74
56719;BME280;42597;40.636;0.278;2022-10-17T00:43:20;97749.66;;;19.88;93.38
56719;BME280;42597;40.636;0.278;2022-10-17T00:45:46;97753.19;;;19.63;92.91
56719;BME280;42597;40.636;0.278;2022-10-17T00:48:12;97752.38;;;19.59;92.45
56719;BME280;42597;40.636;0.278;2022-10-17T00:50:40;97756.28;;;20.51;89.36
56719;BME280;42597;40.636;0.278;2022-10-17T00:53:08;97755.34;;;20.90;87.85
56719;BME280;42597;40.636;0.278;2022-10-17T00:55:42;97758.34;;;21.20;85.36
56719;BME280;42597;40.636;0.278;2022-10-17T00:58:09;97753.31;;;21.08;85.53
56719;BME280;42597;40.636;0.278;2022-10-17T01:00:35;97752.13;;;21.09;84.40
56719;BME280;42597;40.636;0.278;2022-10-17T01:03:01;97748.69;;;20.94;86.26
56719;BME280;42597;40.636;0.278;2022-10-17T01:05:27;97764.72;;;21.00;85.81
56719;BME280;42597;40.636;0.278;2022-10-17T01:07:53;97758.34;;;21.20;84.13
56719;BME280;42597;40.636;0.278;2022-10-17T01:10:19;97763.84;;;21.20;83.07
56719;BME280;42597;40.636;0.278;2022-10-17T01:13:32;97763.41;;;21.29;83.30
56719;BME280;42597;40.636;0.278;2022-10-17T01:21:01;97754.69;;;20.46;85.78
56719;BME280;42597;40.636;0.278;2022-10-17T01:24:02;97746.75;;;20.77;85.47
56719;BME280;42597;40.636;0.278;2022-10-17T01:29:37;97746.88;;;19.38;90.49
56719;BME280;42597;40.636;0.278;2022-10-17T01:32:36;97750.75;;;19.22;92.78
56719;BME280;42597;40.636;0.278;2022-10-17T01:37:50;97749.72;;;18.68;94.87
56719;BME280;42597;40.636;0.278;2022-10-17T01:40:26;97752.81;;;18.56;95.60
56719;BME280;42597;40.636;0.278;2022-10-17T01:47:52;97746.66;;;18.77;95.01
56719;BME280;42597;40.636;0.278;2022-10-17T01:50:23;97749.22;;;20.36;89.36
56719;BME280;42597;40.636;0.278;2022-10-17T01:52:53;97745.97;;;20.84;84.73
56719;BME280;42597;40.636;0.278;2022-10-17T01:55:30;97746.72;;;20.95;84.12
56719;BME280;42597;40.636;0.278;2022-10-17T01:58:02;97763.91;;;21.06;83.32
56719;BME280;42597;40.636;0.278;2022-10-17T02:00:31;97769.78;;;21.08;82.18
56719;BME280;42597;40.636;0.278;2022-10-17T02:02:59;97754.41;;;21.18;81.86
56719;BME280;42597;40.636;0.278;2022-10-17T02:05:31;97764.28;;;21.08;82.01
56719;BME280;42597;40.636;0.278;2022-10-17T02:07:57;97760.75;;;21.11;81.74
56719;BME280;42597;40.636;0.278;2022-10-17T02:11:05;97767.25;;;20.55;83.09
56719;BME280;42597;40.636;0.278;2022-10-17T02:27:28;97758.63;;;19.56;87.00
56719;BME280;42597;40.636;0.278;2022-10-17T02:30:05;97751.78;;;18.82;92.17
56719;BME280;42597;40.636;0.278;2022-10-17T02:35:16;97754.50;;;18.16;95.23
56719;BME280;42597;40.636;0.278;2022-10-17T02:37:44;97748.03;;;18.39;94.09
56719;BME280;42597;40.636;0.278;2022-10-17T02:40:12;97747.28;;;18.42;93.73
56719;BME280;42597;40.636;0.278;2022-10-17T02:42:41;97739.94;;;18.64;93.24
56719;BME280;42597;40.636;0.278;2022-10-17T02:45:09;97743.97;;;18.88;91.22
56719;BME280;42597;40.636;0.278;2022-10-17T02:47:43;97749.25;;;18.52;94.21
56719;BME280;42597;40.636;0.278;2022-10-17T02:50:12;97738.66;;;18.40;94.07
56719;BME280;42597;40.636;0.278;2022-10-17T02:53:03;97730.88;;;18.53;93.03
56719;BME280;42597;40.636;0.278;2022-10-17T02:55:39;97730.00;;;18.31;94.43
56719;BME280;42597;40.636;0.278;2022-10-17T02:58:11;97742.44;;;18.21;95.24
56719;BME280;42597;40.636;0.278;2022-10-17T03:00:39;97736.00;;;18.54;93.30
56719;BME280;42597;40.636;0.278;2022-10-17T03:03:24;97730.53;;;18.54;93.94
56719;BME280;42597;40.636;0.278;2022-10-17T03:05:50;97737.06;;;18.35;93.92
56719;BME280;42597;40.636;0.278;2022-10-17T03:08:16;97730.19;;;18.66;93.06
56719;BME280;42597;40.636;0.278;2022-10-17T03:10:42;97722.97;;;18.37;94.38
56719;BME280;42597;40.636;0.278;2022-10-17T03:13:08;97722.97;;;18.37;93.41
56719;BME280;42597;40.636;0.278;2022-10-17T03:15:33;97731.59;;;19.51;90.88
56719;BME280;42597;40.636;0.278;2022-10-17T03:17:59;97734.31;;;20.51;84.22
56719;BME280;42597;40.636;0.278;2022-10-17T03:20:24;97737.41;;;20.60;83.01
56719;BME280;42597;40.636;0.278;2022-10-17T03:22:50;97736.66;;;20.56;82.44
56719;BME280;42597;40.636;0.278;2022-10-17T03:25:15;97738.25;;;20.18;82.63
56719;BME280;42597;40.636;0.278;2022-10-17T03:27:41;97740.16;;;20.67;81.48
56719;BME280;42597;40.636;0.278;2022-10-17T03:30:07;97753.09;;;20.70;81.24
56719;BME280;42597;40.636;0.278;2022-10-17T03:32:33;97757.75;;;20.81;80.30
56719;BME280;42597;40.636;0.278;2022-10-17T03:34:58;97763.22;;;20.88;79.89
56719;BME280;42597;40.636;0.278;2022-10-17T03:37:24;97758.44;;;18.78;86.71
56719;BME280;42597;40.636;0.278;2022-10-17T03:39:49;97753.09;;;17.82;95.42
56719;BME280;42597;40.636;0.278;2022-10-17T03:42:15;97755.03;;;17.78;97.33
56719;BME280;42597;40.636;0.278;2022-10-17T03:44:41;97739.72;;;17.69;97.70
56719;BME280;42597;40.636;0.278;2022-10-17T03:47:06;97728.91;;;17.84;97.32
56719;BME280;42597;40.636;0.278;2022-10-17T03:49:32;97743.84;;;18.00;97.14
56719;BME280;42597;40.636;0.278;2022-10-17T03:51:57;97751.47;;;19.05;92.91
56719;BME280;42597;40.636;0.278;2022-10-17T03:54:23;97761.03;;;20.18;85.54
56719;BME280;42597;40.636;0.278;2022-10-17T03:56:48;97769.59;;;20.56;82.41
56719;BME280;42597;40.636;0.278;2022-10-17T03:59:14;97776.63;;;20.64;81.51
56719;BME280;42597;40.636;0.278;2022-10-17T04:01:40;97774.34;;;19.95;81.61
56719;BME280;42597;40.636;0.278;2022-10-17T04:04:06;97772.47;;;18.72;88.66
56719;BME280;42597;40.636;0.278;2022-10-17T04:06:32;97776.16;;;18.36;92.70
56719;BME280;42597;40.636;0.278;2022-10-17T04:08:58;97773.13;;;18.55;93.02
56719;BME280;42597;40.636;0.278;2022-10-17T04:11:24;97783.75;;;20.23;84.59
56719;BME280;42597;40.636;0.278;2022-10-17T04:13:54;97778.59;;;20.67;81.27
56719;BME280;42597;40.636;0.278;2022-10-17T04:16:20;97786.03;;;20.70;80.24
56719;BME280;42597;40.636;0.278;2022-10-17T04:18:46;97791.59;;;20.06;81.73
56719;BME280;42597;40.636;0.278;2022-10-17T04:21:12;97792.38;;;19.75;83.78
56719;BME280;42597;40.636;0.278;2022-10-17T04:23:38;97782.94;;;20.33;82.57
56719;BME280;42597;40.636;0.278;2022-10-17T04:26:04;97783.31;;;20.63;80.59
56719;BME280;42597;40.636;0.278;2022-10-17T04:28:31;97788.03;;;20.59;80.17
56719;BME280;42597;40.636;0.278;2022-10-17T04:30:58;97791.53;;;20.70;79.78
56719;BME280;42597;40.636;0.278;2022-10-17T04:33:24;97789.94;;;20.73;79.71
56719;BME280;42597;40.636;0.278;2022-10-17T04:36:12;97804.84;;;20.76;79.14
56719;BME280;42597;40.636;0.278;2022-10-17T04:38:38;97802.56;;;20.28;80.75
56719;BME280;42597;40.636;0.278;2022-10-17T04:41:06;97806.41;;;18.64;88.16
56719;BME280;42597;40.636;0.278;2022-10-17T04:43:34;97799.38;;;18.08;94.41
56719;BME280;42597;40.636;0.278;2022-10-17T04:46:01;97810.34;;;18.12;95.04
56719;BME280;42597;40.636;0.278;2022-10-17T04:48:28;97817.88;;;18.81;92.52
56719;BME280;42597;40.636;0.278;2022-10-17T04:51:02;97819.19;;;18.42;92.01
56719;BME280;42597;40.636;0.278;2022-10-17T04:53:30;97820.91;;;18.68;92.11
56719;BME280;42597;40.636;0.278;2022-10-17T04:55:56;97823.22;;;19.54;88.95
56719;BME280;42597;40.636;0.278;2022-10-17T04:58:22;97840.19;;;20.52;82.52
56719;BME280;42597;40.636;0.278;2022-10-17T05:00:47;97834.28;;;20.57;81.30
56719;BME280;42597;40.636;0.278;2022-10-17T05:03:13;97835.84;;;20.65;80.18
56719;BME280;42597;40.636;0.278;2022-10-17T05:05:39;97846.47;;;20.49;80.71
56719;BME280;42597;40.636;0.278;2022-10-17T05:08:07;97849.59;;;20.15;82.61
56719;BME280;42597;40.636;0.278;2022-10-17T05:10:37;97849.59;;;20.48;80.43
56719;BME280;42597;40.636;0.278;2022-10-17T05:13:03;97852.75;;;20.10;80.67
56719;BME280;42597;40.636;0.278;2022-10-17T05:15:28;97855.81;;;19.62;83.05
56719;BME280;42597;40.636;0.278;2022-10-17T05:17:55;97868.41;;;20.35;81.42
56719;BME280;42597;40.636;0.278;2022-10-17T05:20:20;97885.69;;;20.60;79.51
56719;BME280;42597;40.636;0.278;2022-10-17T05:22:46;97881.75;;;20.40;78.98
56719;BME280;42597;40.636;0.278;2022-10-17T05:25:11;97883.28;;;20.05;82.21
56719;BME280;42597;40.636;0.278;2022-10-17T05:27:37;97891.53;;;19.98;82.00
56719;BME280;42597;40.636;0.278;2022-10-17T05:30:03;97892.31;;;20.24;79.86
56719;BME280;42597;40.636;0.278;2022-10-17T05:32:29;97890.22;;;18.80;87.28
56719;BME280;42597;40.636;0.278;2022-10-17T05:34:55;97904.22;;;19.30;86.92
56719;BME280;42597;40.636;0.278;2022-10-17T05:37:20;97905.81;;;19.45;83.28
56719;BME280;42597;40.636;0.278;2022-10-17T05:39:45;97907.84;;;17.90;92.79
56719;BME280;42597;40.636;0.278;2022-10-17T05:42:11;97901.66;;;17.63;96.17
56719;BME280;42597;40.636;0.278;2022-10-17T05:44:36;97905.00;;;18.23;94.22
56719;BME280;42597;40.636;0.278;2022-10-17T05:47:03;97915.75;;;18.02;94.21
56719;BME280;42597;40.636;0.278;2022-10-17T05:49:29;97908.31;;;17.65;96.22
56719;BME280;42597;40.636;0.278;2022-10-17T05:51:54;97907.06;;;17.59;96.57
56719;BME280;42597;40.636;0.278;2022-10-17T05:54:20;97898.63;;;17.71;95.87
56719;BME280;42597;40.636;0.278;2022-10-17T05:56:50;97901.50;;;17.82;95.84
56719;BME280;42597;40.636;0.278;2022-10-17T05:59:16;97901.84;;;17.77;95.27
56719;BME280;42597;40.636;0.278;2022-10-17T06:01:42;97901.13;;;17.84;94.62
56719;BME280;42597;40.636;0.278;2022-10-17T06:04:07;97898.53;;;17.98;94.18
56719;BME280;42597;40.636;0.278;2022-10-17T06:06:35;97906.75;;;17.98;94.09
56719;BME280;42597;40.636;0.278;2022-10-17T06:09:01;97904.78;;;17.98;94.26
56719;BME280;42597;40.636;0.278;2022-10-17T06:11:26;97909.50;;;18.02;93.92
56719;BME280;42597;40.636;0.278;2022-10-17T06:13:52;97904.72;;;18.36;91.90
56719;BME280;42597;40.636;0.278;2022-10-17T06:16:17;97897.66;;;18.31;93.55
56719;BME280;42597;40.636;0.278;2022-10-17T06:18:43;97909.84;;;19.65;87.71
56719;BME280;42597;40.636;0.278;2022-10-17T06:21:10;97918.19;;;20.30;82.98
56719;BME280;42597;40.636;0.278;2022-10-17T06:23:36;97914.97;;;18.94;85.67
56719;BME280;42597;40.636;0.278;2022-10-17T06:26:03;97929.63;;;19.27;85.95
56719;BME280;42597;40.636;0.278;2022-10-17T06:28:29;97933.47;;;20.02;83.81
56719;BME280;42597;40.636;0.278;2022-10-17T06:30:55;97937.41;;;20.23;82.27
56719;BME280;42597;40.636;0.278;2022-10-17T06:33:20;97953.09;;;19.24;85.55
56719;BME280;42597;40.636;0.278;2022-10-17T06:35:54;97948.97;;;18.93;88.50
56719;BME280;42597;40.636;0.278;2022-10-17T06:38:19;97949.91;;;18.63;89.54
56719;BME280;42597;40.636;0.278;2022-10-17T06:40:45;97953.41;;;18.60;92.65
56719;BME280;42597;40.636;0.278;2022-10-17T06:43:11;97955.13;;;19.34;86.46
56719;BME280;42597;40.636;0.278;2022-10-17T06:45:39;97959.19;;;19.65;85.55
56719;BME280;42597;40.636;0.278;2022-10-17T06:48:05;97965.13;;;19.82;83.85
56719;BME280;42597;40.636;0.278;2022-10-17T06:50:31;97977.75;;;20.08;82.60
56719;BME280;42597;40.636;0.278;2022-10-17T06:52:57;97965.16;;;19.96;82.41
56719;BME280;42597;40.636;0.278;2022-10-17T06:55:23;97977.44;;;18.81;88.04
56719;BME280;42597;40.636;0.278;2022-10-17T06:57:48;97996.44;;;18.63;89.16
56719;BME280;42597;40.636;0.278;2022-10-17T07:00:15;98000.28;;;18.14;93.19
56719;BME280;42597;40.636;0.278;2022-10-17T07:02:42;97997.13;;;18.12;94.25
56719;BME280;42597;40.636;0.278;2022-10-17T07:05:08;98006.53;;;18.15;94.33
56719;BME280;42597;40.636;0.278;2022-10-17T07:07:34;97992.41;;;18.09;95.10
56719;BME280;42597;40.636;0.278;2022-10-17T07:09:59;98003.75;;;18.11;95.77
56719;BME280;42597;40.636;0.278;2022-10-17T07:12:25;98000.78;;;18.27;95.36
56719;BME280;42597;40.636;0.278;2022-10-17T07:14:52;98002.75;;;18.27;95.48
56719;BME280;42597;40.636;0.278;2022-10-17T07:17:17;97989.09;;;18.30;95.26
56719;BME280;42597;40.636;0.278;2022-10-17T07:19:43;97983.13;;;18.17;96.39
56719;BME280;42597;40.636;0.278;2022-10-17T07:22:09;97980.66;;;18.09;97.01
56719;BME280;42597;40.636;0.278;2022-10-17T07:24:35;97980.09;;;18.26;96.67
56719;BME280;42597;40.636;0.278;2022-10-17T07:27:01;97979.50;;;18.47;95.39
56719;BME280;42597;40.636;0.278;2022-10-17T07:29:26;97981.88;;;18.52;95.27
56719;BME280;42597;40.636;0.278;2022-10-17T07:31:52;97991.88;;;19.30;90.35
56719;BME280;42597;40.636;0.278;2022-10-17T07:34:17;97994.44;;;19.05;92.41
56719;BME280;42597;40.636;0.278;2022-10-17T07:36:43;97995.28;;;18.64;94.12
56719;BME280;42597;40.636;0.278;2022-10-17T07:39:09;97995.38;;;18.71;93.66
56719;BME280;42597;40.636;0.278;2022-10-17T07:41:35;98002.69;;;18.64;94.79
56719;BME280;42597;40.636;0.278;2022-10-17T07:44:01;98005.09;;;18.65;94.62
56719;BME280;42597;40.636;0.278;2022-10-17T07:46:26;98001.44;;;18.95;92.92
56719;BME280;42597;40.636;0.278;2022-10-17T07:48:51;98003.47;;;19.09;92.01
56719;BME280;42597;40.636;0.278;2022-10-17T07:51:17;98002.06;;;18.74;94.48
56719;BME280;42597;40.636;0.278;2022-10-17T07:53:44;98006.97;;;19.02;93.01
56719;BME280;42597;40.636;0.278;2022-10-17T07:56:10;98007.53;;;19.33;92.05
56719;BME280;42597;40.636;0.278;2022-10-17T07:58:37;98004.25;;;19.68;89.68
56719;BME280;42597;40.636;0.278;2022-10-17T08:01:05;98003.09;;;19.76;89.62
56719;BME280;42597;40.636;0.278;2022-10-17T08:03:31;98010.50;;;19.68;90.32
56719;BME280;42597;40.636;0.278;2022-10-17T08:06:00;98024.34;;;20.01;88.43
56719;BME280;42597;40.636;0.278;2022-10-17T08:08:26;98029.13;;;20.25;87.02
56719;BME280;42597;40.636;0.278;2022-10-17T08:10:53;98036.91;;;19.98;88.96
56719;BME280;42597;40.636;0.278;2022-10-17T08:13:20;98054.91;;;19.92;88.87
56719;BME280;42597;40.636;0.278;2022-10-17T08:15:46;98053.72;;;19.93;89.23
56719;BME280;42597;40.636;0.278;2022-10-17T08:18:15;98051.81;;;20.08;94.13
56719;BME280;42597;40.636;0.278;2022-10-17T08:20:42;98057.34;;;20.26;98.18
56719;BME280;42597;40.636;0.278;2022-10-17T08:23:07;98060.50;;;20.28;100.00
56719;BME280;42597;40.636;0.278;2022-10-17T08:25:33;98058.91;;;20.16;100.00
56719;BME280;42597;40.636;0.278;2022-10-17T08:27:58;98063.53;;;20.01;100.00
56719;BME280;42597;40.636;0.278;2022-10-17T08:30:24;98065.94;;;20.06;100.00
56719;BME280;42597;40.636;0.278;2022-10-17T08:32:50;98065.09;;;19.95;100.00
56719;BME280;42597;40.636;0.278;2022-10-17T08:35:15;98064.38;;;20.12;100.00
56719;BME280;42597;40.636;0.278;2022-10-17T08:37:41;98072.69;;;20.27;100.00
56719;BME280;42597;40.636;0.278;2022-10-17T08:40:13;98058.84;;;19.98;100.00
56719;BME280;42597;40.636;0.278;2022-10-17T08:45:57;98069.84;;;20.05;100.00
56719;BME280;42597;40.636;0.278;2022-10-17T08:48:26;98069.06;;;20.08;100.00
56719;BME280;42597;40.636;0.278;2022-10-17T08:50:55;98065.19;;;20.16;100.00
56719;BME280;42597;40.636;0.278;2022-10-17T08:53:30;98051.84;;;20.11;100.00
56719;BME280;42597;40.636;0.278;2022-10-17T08:56:01;98051.47;;;20.16;100.00
56719;BME280;42597;40.636;0.278;2022-10-17T08:58:33;98038.50;;;20.06;100.00
56719;BME280;42597;40.636;0.278;2022-10-17T09:03:57;98006.38;;;20.17;100.00
56719;BME280;42597;40.636;0.278;2022-10-17T09:09:35;98007.16;;;20.18;100.00
56719;BME280;42597;40.636;0.278;2022-10-17T09:12:14;97997.78;;;20.30;100.00
56719;BME280;42597;40.636;0.278;2022-10-17T09:15:02;98012.72;;;20.43;100.00
56719;BME280;42597;40.636;0.278;2022-10-17T09:17:47;98021.72;;;20.36;100.00
56719;BME280;42597;40.636;0.278;2022-10-17T09:20:36;98020.19;;;20.42;100.00
56719;BME280;42597;40.636;0.278;2022-10-17T09:23:17;98019.38;;;20.38;100.00
56719;BME280;42597;40.636;0.278;2022-10-17T09:25:47;98035.47;;;20.43;100.00
56719;BME280;42597;40.636;0.278;2022-10-17T09:33:38;98020.53;;;20.34;100.00
56719;BME280;42597;40.636;0.278;2022-10-17T09:36:19;98029.91;;;20.15;100.00
56719;BME280;42597;40.636;0.278;2022-10-17T09:38:49;98040.84;;;20.04;100.00
56719;BME280;42597;40.636;0.278;2022-10-17T09:41:26;98045.94;;;20.09;100.00
56719;BME280;42597;40.636;0.278;2022-10-17T09:43:58;98047.94;;;20.16;100.00
56719;BME280;42597;40.636;0.278;2022-10-17T09:46:35;98050.31;;;20.28;100.00
56719;BME280;42597;40.636;0.278;2022-10-17T09:49:09;98056.63;;;20.36;100.00
56719;BME280;42597;40.636;0.278;2022-10-17T09:51:37;98059.28;;;20.18;100.00
56719;BME280;42597;40.636;0.278;2022-10-17T09:54:14;98058.09;;;20.08;100.00
56719;BME280;42597;40.636;0.278;2022-10-17T09:57:02;98070.25;;;20.07;100.00
56719;BME280;42597;40.636;0.278;2022-10-17T09:59:34;98065.16;;;20.13;100.00
56719;BME280;42597;40.636;0.278;2022-10-17T10:05:02;98058.16;;;20.33;100.00
56719;BME280;42597;40.636;0.278;2022-10-17T10:07:33;98052.66;;;20.23;100.00
56719;BME280;42597;40.636;0.278;2022-10-17T10:09:59;98060.16;;;20.40;100.00
56719;BME280;42597;40.636;0.278;2022-10-17T10:12:37;98059.00;;;20.48;100.00
56719;BME280;42597;40.636;0.278;2022-10-17T10:15:45;98069.97;;;20.44;100.00
56719;BME280;42597;40.636;0.278;2022-10-17T10:18:35;98062.22;;;20.75;100.00
56719;BME280;42597;40.636;0.278;2022-10-17T10:21:09;98059.84;;;20.77;100.00
56719;BME280;42597;40.636;0.278;2022-10-17T10:23:37;98059.88;;;20.91;100.00
56719;BME280;42597;40.636;0.278;2022-10-17T10:28:59;98052.41;;;20.63;100.00
56719;BME280;42597;40.636;0.278;2022-10-17T10:31:29;98069.66;;;20.64;100.00
56719;BME280;42597;40.636;0.278;2022-10-17T10:33:58;98070.41;;;20.54;100.00
56719;BME280;42597;40.636;0.278;2022-10-17T10:36:24;98071.56;;;20.49;100.00
56719;BME280;42597;40.636;0.278;2022-10-17T10:38:54;98080.22;;;20.51;100.00
56719;BME280;42597;40.636;0.278;2022-10-17T10:41:20;98070.81;;;20.52;100.00
56719;BME280;42597;40.636;0.278;2022-10-17T10:43:48;98079.44;;;20.61;100.00
56719;BME280;42597;40.636;0.278;2022-10-17T10:46:27;98079.44;;;20.61;100.00
56719;BME280;42597;40.636;0.278;2022-10-17T10:49:00;98086.50;;;20.66;100.00
56719;BME280;42597;40.636;0.278;2022-10-17T10:51:43;98082.97;;;20.65;100.00
56719;BME280;42597;40.636;0.278;2022-10-17T10:54:24;98081.03;;;20.69;100.00
56719;BME280;42597;40.636;0.278;2022-10-17T10:56:53;98080.66;;;20.89;100.00
56719;BME280;42597;40.636;0.278;2022-10-17T10:59:25;98079.50;;;20.83;100.00
56719;BME280;42597;40.636;0.278;2022-10-17T11:02:03;98076.38;;;20.99;100.00
56719;BME280;42597;40.636;0.278;2022-10-17T11:07:45;98070.88;;;20.95;100.00
56719;BME280;42597;40.636;0.278;2022-10-17T11:10:48;98079.91;;;20.92;100.00
56719;BME280;42597;40.636;0.278;2022-10-17T11:13:24;98085.00;;;21.04;100.00
56719;BME280;42597;40.636;0.278;2022-10-17T11:16:36;98088.13;;;21.06;100.00
56719;BME280;42597;40.636;0.278;2022-10-17T11:19:51;98091.66;;;21.10;100.00
56719;BME280;42597;40.636;0.278;2022-10-17T11:24:52;98078.72;;;21.29;100.00
56719;BME280;42597;40.636;0.278;2022-10-17T11:27:22;98076.78;;;21.36;100.00
56719;BME280;42597;40.636;0.278;2022-10-17T11:29:49;98074.78;;;21.30;100.00
56719;BME280;42597;40.636;0.278;2022-10-17T11:32:28;98076.38;;;21.52;100.00
56719;BME280;42597;40.636;0.278;2022-10-17T11:35:04;98071.66;;;21.46;100.00
56719;BME280;42597;40.636;0.278;2022-10-17T11:37:38;98066.94;;;21.53;100.00
56719;BME280;42597;40.636;0.278;2022-10-17T11:40:14;98079.13;;;21.52;100.00
56719;BME280;42597;40.636;0.278;2022-10-17T11:43:02;98077.88;;;21.75;100.00
56719;BME280;42597;40.636;0.278;2022-10-17T11:45:34;98073.13;;;21.93;100.00
56719;BME280;42597;40.636;0.278;2022-10-17T11:50:44;98068.38;;;22.04;100.00
56719;BME280;42597;40.636;0.278;2022-10-17T11:53:17;98069.19;;;21.87;99.15
56719;BME280;42597;40.636;0.278;2022-10-17T11:55:44;98069.19;;;21.87;100.00
56719;BME280;42597;40.636;0.278;2022-10-17T11:58:22;98072.31;;;21.96;98.91
56719;BME280;42597;40.636;0.278;2022-10-17T12:17:02;98072.22;;;22.32;94.79
56719;BME280;42597;40.636;0.278;2022-10-17T12:19:33;98065.06;;;22.41;94.15
56719;BME280;42597;40.636;0.278;2022-10-17T12:22:03;98069.03;;;22.37;94.47
56719;BME280;42597;40.636;0.278;2022-10-17T12:24:34;98070.59;;;22.38;94.83
56719;BME280;42597;40.636;0.278;2022-10-17T12:27:27;98066.66;;;22.39;93.26
56719;BME280;42597;40.636;0.278;2022-10-17T12:30:00;98058.13;;;22.15;93.86
56719;BME280;42597;40.636;0.278;2022-10-17T12:32:26;98058.00;;;22.44;92.95
56719;BME280;42597;40.636;0.278;2022-10-17T12:34:53;98055.53;;;22.57;91.63
56719;BME280;42597;40.636;0.278;2022-10-17T12:45:45;98059.53;;;22.49;89.65
56719;BME280;42597;40.636;0.278;2022-10-17T12:48:12;98061.88;;;22.50;90.80
56719;BME280;42597;40.636;0.278;2022-10-17T12:51:01;98057.38;;;22.78;89.31
56719;BME280;42597;40.636;0.278;2022-10-17T12:56:09;98059.38;;;22.74;90.02
56719;BME280;42597;40.636;0.278;2022-10-17T12:58:35;98053.38;;;22.86;86.87
56719;BME280;42597;40.636;0.278;2022-10-17T13:01:01;98052.91;;;22.98;86.74
56719;BME280;42597;40.636;0.278;2022-10-17T13:03:31;98046.78;;;22.73;86.46
56719;BME280;42597;40.636;0.278;2022-10-17T13:06:05;98052.28;;;22.73;86.46
56719;BME280;42597;40.636;0.278;2022-10-17T13:08:33;98048.28;;;22.84;86.35
56719;BME280;42597;40.636;0.278;2022-10-17T13:11:01;98045.16;;;22.79;86.82
56719;BME280;42597;40.636;0.278;2022-10-17T13:13:43;98041.22;;;22.80;85.85
56719;BME280;42597;40.636;0.278;2022-10-17T13:18:52;98027.00;;;22.88;85.19
56719;BME280;42597;40.636;0.278;2022-10-17T13:21:19;98033.31;;;22.85;83.77
56719;BME280;42597;40.636;0.278;2022-10-17T13:23:44;98031.63;;;23.02;84.37
56719;BME280;42597;40.636;0.278;2022-10-17T13:26:13;98029.38;;;22.83;84.88
56719;BME280;42597;40.636;0.278;2022-10-17T13:28:40;98025.81;;;22.86;84.07
56719;BME280;42597;40.636;0.278;2022-10-17T13:31:06;98019.91;;;22.91;84.12
56719;BME280;42597;40.636;0.278;2022-10-17T13:33:36;98030.09;;;22.94;85.78
56719;BME280;42597;40.636;0.278;2022-10-17T13:36:06;98016.88;;;22.71;86.97
56719;BME280;42597;40.636;0.278;2022-10-17T13:38:33;98009.34;;;22.79;87.56
56719;BME280;42597;40.636;0.278;2022-10-17T13:41:00;98018.31;;;22.90;86.59
56719;BME280;42597;40.636;0.278;2022-10-17T13:43:26;98023.56;;;22.70;86.53
56719;BME280;42597;40.636;0.278;2022-10-17T13:46:02;98011.41;;;22.67;84.96
56719;BME280;42597;40.636;0.278;2022-10-17T13:48:31;98009.00;;;22.70;84.93
56719;BME280;42597;40.636;0.278;2022-10-17T13:51:02;98016.03;;;22.78;85.19
56719;BME280;42597;40.636;0.278;2022-10-17T13:53:33;98005.03;;;22.78;84.79
56719;BME280;42597;40.636;0.278;2022-10-17T13:58:40;98013.56;;;22.94;83.77
56719;BME280;42597;40.636;0.278;2022-10-17T14:01:07;98012.78;;;22.90;84.14
56719;BME280;42597;40.636;0.278;2022-10-17T14:03:33;98008.81;;;22.98;84.32
56719;BME280;42597;40.636;0.278;2022-10-17T14:11:22;98012.94;;;22.72;86.36
56719;BME280;42597;40.636;0.278;2022-10-17T14:13:49;98012.00;;;22.93;85.68
56719;BME280;42597;40.636;0.278;2022-10-17T14:16:15;98017.56;;;22.86;85.57
56719;BME280;42597;40.636;0.278;2022-10-17T14:18:41;98019.72;;;23.12;85.67
56719;BME280;42597;40.636;0.278;2022-10-17T14:21:18;98007.31;;;22.86;85.47
56719;BME280;42597;40.636;0.278;2022-10-17T14:23:44;98016.72;;;22.96;84.05
56719;BME280;42597;40.636;0.278;2022-10-17T14:26:14;98012.72;;;23.04;83.11
56719;BME280;42597;40.636;0.278;2022-10-17T14:28:43;98015.47;;;23.04;81.47
56719;BME280;42597;40.636;0.278;2022-10-17T14:31:20;98015.84;;;23.03;81.64
56719;BME280;42597;40.636;0.278;2022-10-17T14:33:47;98015.84;;;23.03;82.81
56719;BME280;42597;40.636;0.278;2022-10-17T14:36:13;98015.88;;;22.99;83.05
56719;BME280;42597;40.636;0.278;2022-10-17T14:38:45;98011.88;;;23.07;82.84
56719;BME280;42597;40.636;0.278;2022-10-17T14:41:24;98009.59;;;22.99;84.25
56719;BME280;42597;40.636;0.278;2022-10-17T14:43:53;98016.28;;;23.01;84.65
56719;BME280;42597;40.636;0.278;2022-10-17T14:46:20;98017.53;;;22.93;85.54
56719;BME280;42597;40.636;0.278;2022-10-17T14:48:54;98018.31;;;22.94;86.47
56719;BME280;42597;40.636;0.278;2022-10-17T14:51:20;98031.63;;;23.02;86.34